This is the latest recevied weather packets stored in our database for station/object HS3LIQ-13. If no packets are shown the sender has not sent any weather packets the latest 10 day(s).
| Time | Temp. | Humidity | Pressure | Rain* | Wind** | Luminosity | Snow |
|---|---|---|---|---|---|---|---|
| 1788493448 | 30° C | 66% | 1010 hPa | - | - | - | - |
| 1788492125 | 28.89° C | 74% | 1010 hPa | - | - | - | - |
| 1788488525 | 27.78° C | 94% | 1010 hPa | - | - | - | - |
| 1788484925 | 25.56° C | 100% | 1009 hPa | - | - | - | - |
| 1788481326 | 25° C | 100% | 1008 hPa | - | - | - | - |
| 1788472808 | 27.78° C | 94% | 1008 hPa | - | - | - | - |
| 1788469207 | 27.78° C | 94% | 1008 hPa | - | - | - | - |
| 1788465607 | 27.78° C | 94% | 1008 hPa | - | - | - | - |
| 1788446645 | 27.78° C | 94% | 1008 hPa | - | - | - | - |
| 1788444007 | 27.78° C | 83% | 1007 hPa | - | - | - | - |
| 1788441725 | 28.89° C | 70% | 1007 hPa | - | - | - | - |
| 1788440409 | 28.89° C | 70% | 1007 hPa | - | - | - | - |
| 1788433207 | 32.78° C | 52% | 1005 hPa | - | - | - | - |
| 1788430925 | 32.78° C | 49% | 1005 hPa | - | - | - | - |
| 1788428644 | 32.78° C | 49% | 1005 hPa | - | - | - | - |
| 1788427325 | 32.78° C | 52% | 1006 hPa | - | - | - | - |
| 1788426008 | 32.78° C | 52% | 1006 hPa | - | - | - | - |
| 1788423724 | 32.78° C | 52% | 1006 hPa | - | - | - | - |
| 1788422407 | 32.78° C | 52% | 1007 hPa | - | - | - | - |
| 1788421444 | 32.78° C | 52% | 1007 hPa | - | - | - | - |
| 1788420124 | 31.67° C | 59% | 1009 hPa | - | - | - | - |
| 1788418806 | 31.67° C | 59% | 1009 hPa | - | - | - | - |
| 1788417845 | 31.67° C | 59% | 1009 hPa | - | - | - | - |
| 1788416525 | 31.67° C | 59% | 1009 hPa | - | - | - | - |
| 1788415207 | 31.67° C | 59% | 1010 hPa | - | - | - | - |
* Rain since midnight (hover to see other rain measurements)
** Current wind speed in m/s (hover to see current wind gust speed)